createdAt,value
2019-04-30T00:00:10.549Z,17.43
2019-04-30T00:03:06.843Z,17.20
2019-04-30T00:05:37.395Z,16.80
2019-04-30T00:08:09.844Z,16.90
2019-04-30T00:10:41.517Z,16.60
2019-04-30T00:13:17.557Z,16.37
2019-04-30T00:15:52.881Z,14.90
2019-04-30T00:18:19.540Z,13.57
2019-04-30T00:20:49.686Z,13.03
2019-04-30T00:23:22.611Z,13.17
2019-04-30T00:25:58.320Z,13.13
2019-04-30T00:28:30.168Z,12.57
2019-04-30T00:31:07.974Z,11.97
2019-04-30T00:33:38.216Z,11.70
2019-04-30T00:36:20.466Z,12.63
2019-04-30T00:38:51.728Z,11.93
2019-04-30T00:41:46.447Z,11.73
2019-04-30T00:44:15.142Z,11.87
2019-04-30T00:46:45.787Z,11.73
2019-04-30T00:49:22.999Z,11.60
2019-04-30T00:51:56.717Z,11.83
2019-04-30T00:54:55.284Z,10.50
2019-04-30T00:57:28.924Z,11.03
2019-04-30T00:59:56.137Z,10.83
2019-04-30T01:02:42.744Z,10.83
2019-04-30T01:05:16.311Z,10.50
2019-04-30T01:07:48.713Z,10.67
2019-04-30T01:10:26.762Z,9.73
2019-04-30T01:13:12.457Z,9.47
2019-04-30T01:15:58.835Z,9.87
2019-04-30T01:18:32.220Z,10.10
2019-04-30T01:21:07.895Z,9.43
2019-04-30T01:23:43.144Z,9.47
2019-04-30T01:26:11.345Z,9.37
2019-04-30T01:28:42.632Z,8.57
2019-04-30T01:31:40.806Z,9.33
2019-04-30T01:34:13.927Z,9.23
2019-04-30T01:36:43.494Z,9.10
2019-04-30T01:39:13.317Z,8.90
2019-04-30T01:41:51.116Z,8.50
2019-04-30T01:44:43.438Z,8.97
2019-04-30T01:47:13.268Z,9.00
2019-04-30T01:49:45.638Z,8.10
2019-04-30T01:52:20.523Z,8.50
2019-04-30T01:54:56.555Z,8.43
2019-04-30T01:57:53.141Z,8.00
2019-04-30T02:00:52.223Z,8.63
2019-04-30T02:03:29.377Z,9.43
2019-04-30T02:06:04.938Z,8.37
2019-04-30T02:08:39.337Z,8.80
2019-04-30T02:12:11.622Z,8.47
2019-04-30T02:14:09.409Z,8.83
2019-04-30T02:16:54.311Z,9.23
2019-04-30T02:19:41.085Z,8.90
2019-04-30T02:22:18.976Z,9.07
2019-04-30T02:24:48.752Z,9.27
2019-04-30T02:27:19.164Z,9.00
2019-04-30T02:29:50.605Z,8.77
2019-04-30T02:32:30.531Z,9.33
2019-04-30T02:35:13.234Z,8.93
2019-04-30T02:38:02.129Z,8.73
2019-04-30T02:40:42.684Z,9.07
2019-04-30T02:43:11.883Z,8.47
2019-04-30T02:45:45.581Z,9.37
2019-04-30T02:48:15.067Z,9.47
2019-04-30T02:50:45.188Z,8.63
2019-04-30T02:53:52.810Z,8.90
2019-04-30T02:56:26.597Z,8.90
2019-04-30T02:58:56.546Z,8.50
2019-04-30T03:01:26.524Z,8.90
2019-04-30T03:04:02.816Z,8.37
2019-04-30T03:06:35.992Z,8.67
2019-04-30T03:09:06.007Z,8.60
2019-04-30T03:11:35.530Z,8.83
2019-04-30T03:14:11.190Z,8.77
2019-04-30T03:16:53.191Z,8.57
2019-04-30T03:19:40.112Z,8.30
2019-04-30T03:22:20.324Z,8.67
2019-04-30T03:24:50.094Z,8.80
2019-04-30T03:27:49.981Z,8.43
2019-04-30T03:30:42.455Z,8.50
2019-04-30T03:33:35.343Z,8.83
2019-04-30T03:36:11.943Z,8.87
2019-04-30T03:38:59.855Z,8.50
2019-04-30T03:41:33.128Z,8.50
2019-04-30T03:44:17.381Z,8.27
2019-04-30T03:46:39.901Z,8.47
2019-04-30T03:49:35.685Z,8.57
2019-04-30T03:52:06.373Z,7.93
2019-04-30T03:54:36.758Z,8.83
2019-04-30T03:57:05.924Z,8.60
2019-04-30T03:59:39.483Z,8.50
2019-04-30T04:02:21.734Z,8.10
2019-04-30T04:05:21.749Z,8.70
2019-04-30T04:08:15.756Z,7.97
2019-04-30T04:11:19.924Z,8.63
2019-04-30T04:13:49.661Z,8.10
2019-04-30T04:16:19.606Z,8.33
2019-04-30T04:18:50.040Z,8.23
2019-04-30T04:21:23.777Z,8.57
2019-04-30T04:23:53.085Z,8.03
2019-04-30T04:26:22.218Z,7.93
2019-04-30T04:28:51.713Z,8.03
2019-04-30T04:31:29.784Z,7.67
2019-04-30T04:34:02.101Z,8.07
2019-04-30T04:36:50.698Z,7.70
2019-04-30T04:39:22.113Z,6.97
2019-04-30T04:41:51.769Z,7.60
2019-04-30T04:44:23.477Z,7.90
2019-04-30T04:46:53.151Z,7.67
2019-04-30T04:49:23.288Z,7.57
2019-04-30T04:51:54.633Z,7.23
2019-04-30T04:54:25.448Z,7.60
2019-04-30T04:57:10.975Z,7.77
2019-04-30T04:59:32.280Z,7.87
2019-04-30T05:02:20.645Z,7.13
2019-04-30T05:04:52.656Z,7.83
2019-04-30T05:07:22.143Z,7.47
2019-04-30T05:09:52.274Z,6.80
2019-04-30T05:12:21.394Z,7.53
2019-04-30T05:14:50.619Z,7.13
2019-04-30T05:17:22.745Z,7.63
2019-04-30T05:19:52.558Z,7.20
2019-04-30T05:22:22.271Z,7.23
2019-04-30T05:24:55.460Z,8.20
2019-04-30T05:27:24.624Z,7.93
2019-04-30T05:29:53.702Z,8.10
2019-04-30T05:32:22.649Z,7.50
2019-04-30T05:35:11.198Z,7.77
2019-04-30T05:37:40.036Z,7.50
2019-04-30T05:40:09.374Z,8.03
2019-04-30T05:43:11.236Z,7.60
2019-04-30T05:48:41.232Z,7.83
2019-04-30T05:51:22.676Z,8.07
2019-04-30T05:53:59.376Z,8.07
2019-04-30T05:56:30.468Z,8.60
2019-04-30T05:59:01.143Z,8.50
2019-04-30T06:01:30.581Z,8.00
2019-04-30T06:03:59.893Z,7.83
2019-04-30T06:06:33.630Z,8.43
2019-04-30T06:09:30.763Z,8.23
2019-04-30T06:12:11.571Z,8.77
2019-04-30T06:14:59.089Z,8.07
2019-04-30T06:20:26.515Z,9.10
2019-04-30T06:22:59.708Z,8.73
2019-04-30T06:25:45.871Z,9.37
2019-04-30T06:28:06.754Z,10.40
2019-04-30T06:30:39.805Z,9.33
2019-04-30T06:33:12.572Z,9.20
2019-04-30T06:35:49.157Z,10.40
2019-04-30T06:38:18.557Z,10.73
2019-04-30T06:40:49.629Z,10.33
2019-04-30T06:43:50.957Z,13.70
2019-04-30T06:46:20.120Z,13.20
2019-04-30T06:48:51.025Z,11.27
2019-04-30T06:51:20.523Z,12.97
2019-04-30T06:53:53.873Z,11.93
2019-04-30T06:56:23.747Z,12.33
2019-04-30T06:58:54.979Z,12.60
2019-04-30T07:01:26.453Z,12.70
2019-04-30T07:04:14.946Z,12.93
2019-04-30T07:06:51.399Z,12.30
2019-04-30T07:09:52.106Z,13.77
2019-04-30T07:12:39.051Z,13.40
2019-04-30T07:15:08.765Z,14.60
2019-04-30T07:17:40.564Z,13.70
2019-04-30T07:20:10.458Z,14.87
2019-04-30T07:23:02.570Z,14.17
2019-04-30T07:25:29.538Z,15.23
2019-04-30T07:28:10.088Z,15.67
2019-04-30T07:30:39.624Z,14.97
2019-04-30T07:33:29.637Z,14.80
2019-04-30T07:36:01.501Z,15.70
2019-04-30T07:38:51.779Z,14.90
2019-04-30T07:41:31.726Z,15.17
2019-04-30T07:44:01.089Z,16.00
2019-04-30T07:46:30.243Z,14.83
2019-04-30T07:49:02.417Z,15.07
2019-04-30T07:51:37.682Z,16.10
2019-04-30T07:54:03.333Z,15.00
2019-04-30T07:56:37.874Z,14.93
2019-04-30T07:59:06.027Z,15.77
2019-04-30T08:01:37.202Z,15.63
2019-04-30T08:04:15.630Z,14.50
2019-04-30T08:06:44.736Z,14.60
2019-04-30T08:09:21.884Z,15.53
2019-04-30T08:11:50.348Z,14.80
2019-04-30T08:14:21.111Z,14.93
2019-04-30T08:16:52.026Z,14.90
2019-04-30T08:19:21.117Z,13.73
2019-04-30T08:21:50.167Z,14.13
2019-04-30T08:24:29.157Z,14.73
2019-04-30T08:27:02.247Z,14.63
2019-04-30T08:29:31.385Z,13.83
2019-04-30T08:32:00.620Z,14.63
2019-04-30T08:34:29.784Z,13.70
2019-04-30T08:37:16.751Z,13.53
2019-04-30T08:39:37.010Z,13.60
2019-04-30T08:42:31.697Z,13.80
2019-04-30T08:44:55.123Z,12.60
2019-04-30T08:47:24.202Z,13.67
2019-04-30T08:49:53.500Z,13.20
2019-04-30T08:52:25.520Z,13.43
2019-04-30T08:54:54.964Z,13.53
2019-04-30T08:57:24.145Z,13.30
2019-04-30T09:06:54.283Z,12.57
2019-04-30T09:09:24.417Z,12.83
2019-04-30T09:11:55.749Z,11.63
2019-04-30T09:14:32.730Z,13.20
2019-04-30T09:17:04.768Z,12.57
2019-04-30T09:19:38.625Z,13.13
2019-04-30T09:22:12.379Z,12.57
2019-04-30T09:25:11.626Z,12.90
2019-04-30T09:27:46.224Z,13.40
2019-04-30T09:30:15.025Z,13.20
2019-04-30T09:32:44.089Z,13.50
2019-04-30T09:38:02.000Z,13.17
2019-04-30T09:40:32.544Z,13.93
2019-04-30T09:45:52.547Z,12.63
2019-04-30T09:48:21.811Z,13.23
2019-04-30T09:50:51.350Z,13.27
2019-04-30T09:53:22.395Z,13.23
2019-04-30T09:55:51.376Z,13.33
2019-04-30T09:58:21.170Z,13.37
2019-04-30T10:00:50.505Z,13.33
2019-04-30T10:03:44.207Z,13.40
2019-04-30T10:06:36.340Z,13.23
2019-04-30T10:08:55.716Z,13.10
2019-04-30T10:11:43.629Z,13.27
2019-04-30T10:14:12.864Z,12.23
2019-04-30T10:17:15.320Z,12.40
2019-04-30T10:19:45.160Z,13.13
2019-04-30T10:22:50.940Z,12.40
2019-04-30T10:25:20.178Z,11.90
2019-04-30T10:27:50.680Z,12.93
2019-04-30T10:30:23.424Z,11.23
2019-04-30T10:32:56.865Z,12.63
2019-04-30T10:35:25.730Z,12.13
2019-04-30T10:37:59.552Z,12.00
2019-04-30T10:40:33.318Z,11.77
2019-04-30T10:43:02.358Z,11.93
2019-04-30T10:45:34.453Z,11.47
2019-04-30T10:48:03.475Z,11.47
2019-04-30T10:50:35.040Z,11.73
2019-04-30T10:53:09.138Z,11.63
2019-04-30T10:55:38.742Z,11.60
2019-04-30T10:58:10.839Z,11.53
2019-04-30T11:00:41.871Z,12.03
2019-04-30T11:03:19.189Z,11.07
2019-04-30T11:05:41.963Z,11.27
2019-04-30T11:08:11.348Z,11.27
2019-04-30T11:10:41.999Z,12.53
2019-04-30T11:13:10.826Z,11.83
2019-04-30T11:15:39.883Z,13.53
2019-04-30T11:18:09.589Z,12.13
2019-04-30T11:20:41.826Z,13.80
2019-04-30T11:23:14.761Z,14.57
2019-04-30T11:25:44.893Z,15.07
2019-04-30T11:28:18.431Z,14.73
2019-04-30T11:30:54.709Z,14.47
2019-04-30T11:33:55.450Z,15.57
2019-04-30T11:36:46.340Z,15.10
2019-04-30T11:39:29.858Z,14.47
2019-04-30T11:42:29.069Z,14.97
2019-04-30T11:45:19.457Z,16.80
2019-04-30T11:47:53.599Z,16.00
2019-04-30T11:50:20.730Z,16.90
2019-04-30T11:53:19.671Z,16.37
2019-04-30T11:55:35.980Z,17.23
2019-04-30T11:58:21.397Z,16.77
2019-04-30T12:00:43.996Z,16.27
2019-04-30T12:03:20.907Z,16.87
2019-04-30T12:05:53.797Z,16.70
2019-04-30T12:08:29.353Z,16.90
2019-04-30T12:11:24.476Z,16.70
2019-04-30T12:13:53.958Z,17.53
2019-04-30T12:16:26.033Z,16.90
2019-04-30T12:18:55.236Z,16.53
2019-04-30T12:21:35.586Z,15.93
2019-04-30T12:24:05.295Z,16.43
2019-04-30T12:26:36.391Z,16.57
2019-04-30T12:29:11.171Z,15.03
2019-04-30T12:31:44.553Z,16.20
2019-04-30T12:34:13.731Z,15.87
2019-04-30T12:36:43.880Z,15.83
2019-04-30T12:39:21.485Z,14.43
2019-04-30T12:41:50.579Z,15.07
2019-04-30T12:44:23.475Z,16.37
2019-04-30T12:46:52.506Z,16.87
2019-04-30T12:49:28.718Z,16.13
2019-04-30T12:52:23.057Z,16.47
2019-04-30T12:55:01.419Z,17.73
2019-04-30T12:57:36.736Z,17.20
2019-04-30T13:00:10.535Z,16.63
2019-04-30T13:02:42.276Z,18.63
2019-04-30T13:11:01.974Z,18.43
2019-04-30T13:13:32.671Z,18.73
2019-04-30T13:16:02.297Z,19.33
2019-04-30T13:18:31.301Z,18.17
2019-04-30T13:21:01.203Z,19.23
2019-04-30T13:23:45.612Z,18.17
2019-04-30T13:27:19.570Z,20.30
2019-04-30T13:29:01.968Z,19.07
2019-04-30T13:31:31.065Z,19.90
2019-04-30T13:34:18.639Z,20.30
2019-04-30T13:36:49.429Z,21.73
2019-04-30T13:39:26.913Z,21.10
2019-04-30T13:44:49.401Z,21.07
2019-04-30T13:47:26.467Z,20.93
2019-04-30T13:52:50.530Z,22.53
2019-04-30T13:55:24.135Z,22.27
2019-04-30T13:57:53.737Z,24.33
2019-04-30T14:00:29.756Z,22.97
2019-04-30T14:03:09.225Z,23.07
2019-04-30T14:05:46.776Z,23.50
2019-04-30T14:08:30.602Z,23.80
2019-04-30T14:11:01.430Z,22.13
2019-04-30T14:13:33.291Z,24.27
2019-04-30T14:16:08.950Z,24.83
2019-04-30T14:18:39.795Z,23.20
2019-04-30T14:21:16.826Z,22.77
2019-04-30T14:23:49.487Z,22.67
2019-04-30T14:26:21.843Z,22.33
2019-04-30T14:28:51.050Z,22.20
2019-04-30T14:31:20.877Z,22.77
2019-04-30T14:33:50.543Z,21.80
2019-04-30T14:36:20.153Z,21.90
2019-04-30T14:38:49.177Z,21.30
2019-04-30T14:41:20.449Z,21.80
2019-04-30T14:43:55.184Z,22.37
2019-04-30T14:46:44.399Z,22.53
2019-04-30T14:49:59.152Z,22.50
2019-04-30T14:52:19.341Z,23.03
2019-04-30T14:55:01.798Z,21.97
2019-04-30T14:58:02.383Z,22.20
2019-04-30T15:01:10.001Z,23.17
2019-04-30T15:03:40.848Z,22.80
2019-04-30T15:06:10.352Z,22.13
2019-04-30T15:08:40.100Z,23.33
2019-04-30T15:11:09.204Z,23.03
2019-04-30T15:13:39.408Z,23.57
2019-04-30T15:16:08.761Z,23.40
2019-04-30T15:18:38.878Z,22.80
2019-04-30T15:21:09.917Z,24.13
2019-04-30T15:24:13.180Z,24.97
2019-04-30T15:26:42.438Z,24.40
2019-04-30T15:29:24.584Z,24.43
2019-04-30T15:31:59.412Z,24.87
2019-04-30T15:34:29.293Z,23.97
2019-04-30T15:36:59.124Z,24.17
2019-04-30T15:39:48.863Z,25.43
2019-04-30T15:42:23.542Z,24.33
2019-04-30T15:44:53.011Z,23.67
2019-04-30T15:47:23.111Z,24.40
2019-04-30T15:49:54.950Z,24.77
2019-04-30T15:55:48.406Z,25.27
2019-04-30T15:58:24.517Z,25.83
2019-04-30T16:00:56.422Z,25.60
2019-04-30T16:03:29.376Z,25.43
2019-04-30T16:05:58.628Z,25.03
2019-04-30T16:08:33.132Z,26.47
2019-04-30T16:11:21.467Z,25.03
2019-04-30T16:14:18.738Z,24.77
2019-04-30T16:17:05.718Z,25.87
2019-04-30T16:19:35.797Z,24.70
2019-04-30T16:22:07.602Z,24.97
2019-04-30T16:24:39.303Z,24.63
2019-04-30T16:27:11.361Z,24.77
2019-04-30T16:32:30.842Z,25.70
2019-04-30T16:35:04.607Z,27.87
2019-04-30T16:40:19.030Z,25.83
2019-04-30T16:42:51.642Z,25.73
2019-04-30T16:45:21.464Z,27.23
2019-04-30T16:47:52.017Z,29.27
2019-04-30T16:50:25.032Z,27.60
2019-04-30T16:52:58.174Z,26.17
2019-04-30T16:55:28.603Z,26.63
2019-04-30T16:57:59.809Z,27.13
2019-04-30T17:09:14.542Z,26.07
2019-04-30T17:12:19.597Z,25.53
2019-04-30T17:15:15.640Z,26.40
2019-04-30T17:17:45.220Z,26.07
2019-04-30T17:20:14.952Z,25.90
2019-04-30T17:22:45.229Z,26.90
2019-04-30T17:25:17.324Z,26.00
2019-04-30T17:27:48.472Z,29.33
2019-04-30T17:30:20.862Z,29.83
2019-04-30T17:32:51.310Z,29.07
2019-04-30T17:35:25.280Z,30.27
2019-04-30T17:37:56.106Z,30.50
2019-04-30T17:40:29.084Z,29.00
2019-04-30T17:42:59.686Z,28.30
2019-04-30T17:45:30.226Z,27.63
2019-04-30T17:48:03.782Z,27.70
2019-04-30T17:50:33.187Z,27.80
2019-04-30T17:53:19.060Z,29.37
2019-04-30T17:55:57.903Z,27.33
2019-04-30T17:58:34.242Z,28.30
2019-04-30T18:01:06.374Z,26.90
2019-04-30T18:03:38.818Z,27.10
2019-04-30T18:06:09.016Z,27.60
2019-04-30T18:08:39.372Z,27.30
2019-04-30T18:11:19.902Z,27.60
2019-04-30T18:13:45.321Z,24.47
2019-04-30T18:16:19.484Z,24.03
2019-04-30T18:18:59.226Z,25.40
2019-04-30T18:21:43.069Z,26.30
2019-04-30T18:24:35.074Z,25.57
2019-04-30T18:27:29.331Z,25.40
2019-04-30T18:30:03.375Z,25.97
2019-04-30T18:32:42.725Z,25.50
2019-04-30T18:35:28.622Z,26.30
2019-04-30T18:38:14.266Z,26.73
2019-04-30T18:40:53.291Z,27.00
2019-04-30T18:43:28.611Z,26.73
2019-04-30T18:46:11.088Z,27.80
2019-04-30T18:48:46.678Z,27.00
2019-04-30T18:53:53.039Z,26.13
2019-04-30T18:56:41.872Z,26.80
2019-04-30T18:59:13.879Z,26.40
2019-04-30T19:01:44.819Z,27.20
2019-04-30T19:04:22.416Z,28.60
2019-04-30T19:06:57.328Z,27.30
2019-04-30T19:09:53.448Z,29.17
2019-04-30T19:12:51.242Z,29.57
2019-04-30T19:16:11.368Z,29.63
2019-04-30T19:18:25.864Z,29.50
2019-04-30T19:21:05.890Z,29.73
2019-04-30T19:23:40.571Z,30.13
2019-04-30T19:26:14.324Z,29.80
2019-04-30T19:28:50.620Z,29.00
2019-04-30T19:31:33.995Z,30.80
2019-04-30T19:34:10.718Z,30.97
2019-04-30T19:36:42.704Z,29.67
2019-04-30T19:39:21.421Z,29.37
2019-04-30T19:41:53.775Z,30.63
2019-04-30T19:44:23.368Z,30.63
2019-04-30T19:46:59.964Z,30.97
2019-04-30T19:49:38.926Z,29.80
2019-04-30T19:52:15.695Z,29.93
2019-04-30T19:54:48.786Z,29.73
2019-04-30T19:57:26.234Z,30.77
2019-04-30T19:59:58.651Z,30.37
2019-04-30T20:02:29.458Z,30.50
2019-04-30T20:05:03.475Z,31.70
2019-04-30T20:07:36.937Z,33.43
2019-04-30T20:10:10.675Z,33.73
2019-04-30T20:12:49.277Z,32.63
2019-04-30T20:15:24.413Z,33.80
2019-04-30T20:17:58.354Z,34.73
2019-04-30T20:20:31.381Z,33.00
2019-04-30T20:23:03.975Z,32.83
2019-04-30T20:25:37.995Z,34.37
2019-04-30T20:28:15.128Z,33.47
2019-04-30T20:30:49.942Z,34.80
2019-04-30T20:33:21.945Z,32.57
2019-04-30T20:35:54.144Z,33.00
2019-04-30T20:38:55.330Z,32.63
2019-04-30T20:41:30.287Z,32.27
2019-04-30T20:44:00.870Z,31.87
2019-04-30T20:46:35.210Z,31.73
2019-04-30T20:49:22.893Z,33.03
2019-04-30T20:51:59.053Z,32.67
2019-04-30T20:54:31.328Z,33.67
2019-04-30T20:57:15.598Z,32.37
2019-04-30T20:59:45.052Z,32.33
2019-04-30T21:02:21.294Z,33.10
2019-04-30T21:05:02.910Z,33.53
2019-04-30T21:07:36.323Z,33.27
2019-04-30T21:10:10.159Z,34.07
2019-04-30T21:12:39.822Z,34.27
2019-04-30T21:15:12.285Z,34.20
2019-04-30T21:18:12.539Z,33.07
2019-04-30T21:20:46.434Z,33.23
2019-04-30T21:23:19.611Z,33.83
2019-04-30T21:25:53.665Z,35.53
2019-04-30T21:28:22.988Z,33.40
2019-04-30T21:30:53.787Z,33.83
2019-04-30T21:33:41.351Z,35.47
2019-04-30T21:36:30.499Z,34.53
2019-04-30T21:59:06.455Z,35.80
2019-04-30T22:01:36.156Z,34.50
2019-04-30T22:04:07.833Z,35.70
2019-04-30T22:06:39.477Z,35.53
2019-04-30T22:09:22.922Z,36.33
2019-04-30T22:11:53.135Z,34.33
2019-04-30T22:14:22.965Z,35.17
2019-04-30T22:16:59.281Z,35.37
2019-04-30T22:19:30.949Z,34.37
2019-04-30T22:22:04.513Z,32.97
2019-04-30T22:24:34.989Z,35.80
2019-04-30T22:27:04.538Z,35.87
2019-04-30T22:29:39.283Z,35.30
2019-04-30T22:32:09.399Z,35.93
2019-04-30T22:34:38.669Z,35.77
2019-04-30T22:37:08.531Z,36.27
2019-04-30T22:40:02.290Z,34.77
2019-04-30T22:42:33.401Z,36.60
2019-04-30T22:45:02.813Z,36.13
2019-04-30T22:47:37.715Z,35.97
2019-04-30T22:50:09.369Z,35.93
2019-04-30T22:52:40.672Z,34.93
2019-04-30T22:57:48.852Z,34.17
2019-04-30T23:00:29.972Z,34.80
2019-04-30T23:03:08.799Z,33.60
2019-04-30T23:05:40.793Z,34.37
2019-04-30T23:08:10.297Z,32.27
2019-04-30T23:10:41.335Z,33.00
2019-04-30T23:13:14.578Z,33.17
2019-04-30T23:15:53.011Z,32.27
2019-04-30T23:18:23.546Z,32.80
2019-04-30T23:21:09.076Z,32.93
2019-04-30T23:23:42.512Z,30.80
2019-04-30T23:26:12.990Z,31.10
2019-04-30T23:28:47.409Z,31.20
2019-04-30T23:31:19.186Z,30.70
2019-04-30T23:33:53.182Z,29.17
2019-04-30T23:36:25.365Z,29.07
2019-04-30T23:38:57.564Z,29.50
2019-04-30T23:41:27.682Z,28.40
2019-04-30T23:44:15.312Z,27.80
2019-04-30T23:46:52.290Z,28.30
2019-04-30T23:49:49.542Z,29.43
2019-04-30T23:52:08.854Z,26.97
2019-04-30T23:54:42.926Z,25.17
2019-04-30T23:57:20.377Z,27.33
2019-04-30T23:59:50.560Z,28.23
